createdAt,value
2017-05-02T00:01:57.686Z,6.75
2017-05-02T00:04:24.295Z,7.83
2017-05-02T00:06:50.927Z,7.72
2017-05-02T00:09:17.536Z,7.22
2017-05-02T00:11:44.147Z,8.15
2017-05-02T00:14:10.783Z,7.63
2017-05-02T00:16:37.394Z,8.70
2017-05-02T00:19:04.007Z,7.77
2017-05-02T00:21:30.644Z,7.97
2017-05-02T00:23:57.250Z,8.05
2017-05-02T00:26:23.859Z,8.23
2017-05-02T00:28:50.506Z,7.75
2017-05-02T00:31:17.115Z,8.80
2017-05-02T00:33:43.727Z,8.38
2017-05-02T00:36:10.371Z,10.07
2017-05-02T00:38:37.078Z,11.63
2017-05-02T00:41:03.690Z,9.18
2017-05-02T00:43:30.327Z,9.20
2017-05-02T00:45:56.934Z,8.88
2017-05-02T00:48:23.544Z,7.58
2017-05-02T00:50:50.174Z,8.20
2017-05-02T00:53:16.783Z,8.25
2017-05-02T00:55:43.396Z,10.35
2017-05-02T00:58:10.039Z,9.27
2017-05-02T01:00:36.653Z,7.40
2017-05-02T01:03:03.271Z,8.80
2017-05-02T01:05:29.903Z,8.35
2017-05-02T01:07:56.571Z,11.72
2017-05-02T01:10:23.200Z,9.32
2017-05-02T01:12:49.855Z,9.30
2017-05-02T01:15:16.473Z,9.75
2017-05-02T01:17:43.085Z,8.10
2017-05-02T01:20:09.715Z,9.68
2017-05-02T01:22:36.322Z,8.58
2017-05-02T01:25:02.930Z,9.98
2017-05-02T01:27:29.554Z,8.80
2017-05-02T01:29:56.167Z,9.42
2017-05-02T01:32:22.783Z,9.50
2017-05-02T01:34:49.500Z,8.90
2017-05-02T01:37:16.230Z,8.23
2017-05-02T01:39:42.835Z,8.68
2017-05-02T01:42:09.683Z,8.73
2017-05-02T01:44:36.299Z,14.27
2017-05-02T01:47:02.912Z,7.70
2017-05-02T01:49:29.598Z,6.95
2017-05-02T01:51:56.212Z,6.33
2017-05-02T01:54:22.826Z,6.20
2017-05-02T01:56:49.474Z,7.30
2017-05-02T01:59:16.091Z,7.12
2017-05-02T02:01:42.691Z,6.65
2017-05-02T02:04:09.331Z,7.90
2017-05-02T02:06:36.059Z,9.35
2017-05-02T02:09:02.754Z,11.02
2017-05-02T02:11:29.768Z,7.15
2017-05-02T02:13:56.403Z,8.45
2017-05-02T02:16:23.031Z,16.07
2017-05-02T02:18:49.683Z,8.28
2017-05-02T02:21:16.323Z,11.18
2017-05-02T02:23:42.948Z,9.93
2017-05-02T02:26:09.602Z,10.97
2017-05-02T02:28:36.219Z,6.73
2017-05-02T02:31:02.831Z,6.73
2017-05-02T02:33:29.467Z,8.95
2017-05-02T02:35:56.083Z,7.62
2017-05-02T02:38:22.698Z,5.42
2017-05-02T02:40:49.348Z,6.32
2017-05-02T02:43:15.987Z,6.10
2017-05-02T02:45:42.591Z,5.85
2017-05-02T02:48:09.554Z,5.98
2017-05-02T02:50:36.235Z,6.70
2017-05-02T02:53:02.868Z,5.72
2017-05-02T02:55:29.614Z,6.40
2017-05-02T02:57:56.239Z,7.27
2017-05-02T03:00:22.866Z,9.22
2017-05-02T03:02:49.534Z,7.00
2017-05-02T03:05:16.143Z,7.42
2017-05-02T03:07:42.752Z,7.23
2017-05-02T03:10:09.391Z,6.57
2017-05-02T03:12:35.999Z,7.63
2017-05-02T03:15:02.687Z,5.22
2017-05-02T03:17:29.772Z,7.22
2017-05-02T03:19:56.416Z,7.22
2017-05-02T03:22:23.028Z,8.32
2017-05-02T03:24:49.665Z,6.67
2017-05-02T03:27:16.271Z,7.40
2017-05-02T03:29:42.883Z,7.98
2017-05-02T03:32:09.547Z,7.47
2017-05-02T03:34:36.545Z,7.20
2017-05-02T03:37:03.191Z,6.57
2017-05-02T03:39:29.935Z,7.92
2017-05-02T03:41:56.547Z,9.37
2017-05-02T03:44:23.160Z,8.10
2017-05-02T03:46:50.158Z,7.32
2017-05-02T03:49:16.796Z,6.80
2017-05-02T03:51:43.502Z,8.18
2017-05-02T03:54:10.147Z,7.60
2017-05-02T03:56:36.779Z,6.97
2017-05-02T03:59:03.388Z,7.58
2017-05-02T04:01:30.019Z,8.23
2017-05-02T04:03:56.636Z,9.03
2017-05-02T04:06:23.246Z,9.32
2017-05-02T04:08:50.011Z,7.70
2017-05-02T04:11:16.650Z,8.40
2017-05-02T04:13:43.271Z,8.17
2017-05-02T04:16:09.903Z,7.70
2017-05-02T04:18:36.511Z,9.53
2017-05-02T04:21:03.127Z,6.67
2017-05-02T04:23:29.771Z,9.62
2017-05-02T04:25:56.387Z,8.25
2017-05-02T04:28:23.017Z,8.55
2017-05-02T04:30:49.650Z,7.47
2017-05-02T04:33:16.297Z,7.18
2017-05-02T04:35:42.915Z,9.73
2017-05-02T04:38:09.542Z,8.60
2017-05-02T04:40:36.155Z,8.45
2017-05-02T04:43:02.759Z,9.08
2017-05-02T04:45:29.394Z,8.80
2017-05-02T04:47:56.003Z,9.03
2017-05-02T04:50:22.624Z,10.05
2017-05-02T04:52:49.688Z,8.55
2017-05-02T04:55:16.298Z,9.48
2017-05-02T04:57:42.910Z,9.75
2017-05-02T05:00:09.558Z,9.53
2017-05-02T05:02:36.172Z,9.65
2017-05-02T05:05:02.790Z,9.35
2017-05-02T05:07:29.448Z,10.72
2017-05-02T05:09:56.072Z,9.28
2017-05-02T05:12:22.699Z,10.32
2017-05-02T05:14:49.356Z,9.10
2017-05-02T05:17:15.975Z,10.52
2017-05-02T05:19:42.599Z,10.82
2017-05-02T05:22:09.259Z,11.08
2017-05-02T05:24:35.874Z,10.18
2017-05-02T05:27:02.522Z,11.97
2017-05-02T05:29:29.200Z,11.87
2017-05-02T05:31:55.823Z,11.85
2017-05-02T05:34:22.440Z,10.47
2017-05-02T05:36:49.092Z,11.63
2017-05-02T05:39:15.756Z,10.75
2017-05-02T05:41:42.370Z,11.70
2017-05-02T05:44:09.051Z,12.50
2017-05-02T05:46:35.669Z,12.60
2017-05-02T05:49:02.288Z,13.90
2017-05-02T05:51:28.934Z,13.40
2017-05-02T05:53:55.589Z,13.00
2017-05-02T05:56:22.294Z,13.47
2017-05-02T05:58:48.969Z,12.87
2017-05-02T06:01:15.611Z,14.40
2017-05-02T06:03:42.323Z,14.13
2017-05-02T06:06:08.965Z,13.67
2017-05-02T06:08:35.601Z,13.88
2017-05-02T06:11:02.215Z,16.93
2017-05-02T06:13:28.863Z,16.78
2017-05-02T06:15:55.545Z,14.03
2017-05-02T06:18:22.159Z,15.10
2017-05-02T06:20:48.823Z,17.73
2017-05-02T06:23:15.445Z,18.32
2017-05-02T06:25:42.070Z,17.32
2017-05-02T06:28:08.843Z,93.27
2017-05-02T06:30:35.585Z,38.92
2017-05-02T06:33:02.223Z,21.30
2017-05-02T06:35:28.879Z,48.17
2017-05-02T06:37:55.539Z,39.42
2017-05-02T06:40:22.156Z,25.05
2017-05-02T06:42:48.790Z,20.15
2017-05-02T06:45:15.491Z,34.23
2017-05-02T06:47:42.119Z,23.80
2017-05-02T06:50:08.798Z,33.08
2017-05-02T06:52:35.424Z,35.65
2017-05-02T06:55:02.039Z,25.68
2017-05-02T06:57:28.789Z,19.80
2017-05-02T06:59:55.408Z,29.30
2017-05-02T07:02:22.032Z,17.33
2017-05-02T07:04:48.679Z,20.62
2017-05-02T07:07:15.297Z,19.93
2017-05-02T07:09:41.923Z,39.68
2017-05-02T07:12:08.572Z,21.58
2017-05-02T07:14:35.292Z,27.68
2017-05-02T07:17:01.931Z,32.37
2017-05-02T07:19:28.600Z,30.10
2017-05-02T07:21:55.311Z,30.93
2017-05-02T07:24:21.922Z,28.27
2017-05-02T07:26:48.975Z,19.10
2017-05-02T07:29:15.607Z,20.77
2017-05-02T07:31:42.224Z,19.60
2017-05-02T07:34:08.862Z,24.85
2017-05-02T07:36:35.479Z,26.95
2017-05-02T07:39:02.099Z,23.12
2017-05-02T07:41:28.832Z,28.00
2017-05-02T07:43:55.469Z,26.65
2017-05-02T07:46:22.111Z,26.40
2017-05-02T07:48:48.853Z,24.63
2017-05-02T07:51:15.478Z,26.57
2017-05-02T07:53:42.093Z,25.15
2017-05-02T07:56:08.735Z,22.28
2017-05-02T07:58:35.357Z,23.32
2017-05-02T08:01:01.975Z,23.17
2017-05-02T08:03:28.611Z,23.35
2017-05-02T08:05:55.325Z,22.35
2017-05-02T08:08:21.964Z,21.97
2017-05-02T08:10:48.655Z,26.25
2017-05-02T08:13:15.299Z,22.55
2017-05-02T08:15:41.928Z,22.32
2017-05-02T08:18:08.622Z,16.40
2017-05-02T08:20:35.248Z,19.15
2017-05-02T08:23:01.865Z,13.73
2017-05-02T08:25:28.603Z,15.85
2017-05-02T08:27:55.237Z,17.37
2017-05-02T08:30:21.860Z,16.37
2017-05-02T08:32:48.519Z,16.12
2017-05-02T08:35:15.133Z,18.62
2017-05-02T08:37:41.836Z,17.62
2017-05-02T08:40:08.487Z,16.35
2017-05-02T08:42:35.218Z,14.87
2017-05-02T08:45:01.835Z,14.00
2017-05-02T08:47:28.482Z,14.02
2017-05-02T08:49:55.099Z,14.77
2017-05-02T08:52:21.710Z,14.87
2017-05-02T08:54:48.359Z,15.42
2017-05-02T08:57:14.978Z,15.70
2017-05-02T08:59:41.672Z,14.85
2017-05-02T09:02:08.324Z,14.92
2017-05-02T09:04:34.965Z,12.93
2017-05-02T09:07:01.586Z,12.85
2017-05-02T09:09:28.227Z,12.92
2017-05-02T09:11:54.887Z,11.13
2017-05-02T09:14:21.533Z,10.78
2017-05-02T09:16:48.184Z,14.02
2017-05-02T09:19:14.799Z,12.80
2017-05-02T09:21:41.431Z,13.02
2017-05-02T09:24:08.135Z,13.77
2017-05-02T09:26:34.751Z,19.30
2017-05-02T09:29:01.368Z,21.62
2017-05-02T09:31:28.007Z,21.83
2017-05-02T09:33:54.637Z,20.20
2017-05-02T09:36:21.262Z,19.50
2017-05-02T09:38:47.971Z,18.77
2017-05-02T09:41:14.654Z,21.07
2017-05-02T09:43:41.272Z,13.95
2017-05-02T09:46:07.923Z,15.08
2017-05-02T09:48:34.539Z,16.68
2017-05-02T09:51:01.151Z,18.00
2017-05-02T09:53:28.247Z,29.73
2017-05-02T09:55:54.897Z,20.25
2017-05-02T09:58:21.517Z,15.45
2017-05-02T10:00:48.562Z,13.17
2017-05-02T10:03:15.178Z,12.80
2017-05-02T10:05:41.796Z,14.38
2017-05-02T10:08:09.479Z,15.12
2017-05-02T10:10:36.142Z,12.00
2017-05-02T10:13:02.756Z,33.32
2017-05-02T10:15:29.752Z,23.20
2017-05-02T10:17:56.629Z,11.02
2017-05-02T10:20:23.260Z,13.45
2017-05-02T10:22:49.895Z,4.52
2017-05-02T10:25:16.535Z,11.90
2017-05-02T10:27:43.458Z,4.08
2017-05-02T10:30:10.140Z,3.73
2017-05-02T10:32:36.790Z,4.78
2017-05-02T10:35:03.416Z,3.97
2017-05-02T10:37:30.048Z,4.22
2017-05-02T10:39:56.672Z,8.13
2017-05-02T10:42:23.284Z,5.53
2017-05-02T10:44:49.925Z,11.48
2017-05-02T10:47:17.492Z,4.25
2017-05-02T10:49:44.203Z,12.52
2017-05-02T10:52:10.838Z,3.78
2017-05-02T10:54:37.447Z,3.45
2017-05-02T10:57:04.055Z,4.75
2017-05-02T10:59:30.691Z,3.97
2017-05-02T11:01:57.531Z,17.93
2017-05-02T11:04:24.171Z,4.02
2017-05-02T11:06:50.808Z,4.80
2017-05-02T11:09:17.418Z,2.35
2017-05-02T11:11:44.031Z,6.90
2017-05-02T11:14:10.676Z,2.10
2017-05-02T11:16:38.081Z,2.05
2017-05-02T11:19:06.377Z,2.18
2017-05-02T11:21:33.202Z,2.38
2017-05-02T11:23:59.815Z,2.48
2017-05-02T11:26:26.424Z,2.43
2017-05-02T11:28:53.259Z,2.02
2017-05-02T11:31:20.047Z,2.18
2017-05-02T11:33:46.808Z,1.93
2017-05-02T11:36:13.655Z,2.25
2017-05-02T11:38:40.908Z,2.07
2017-05-02T11:41:07.519Z,2.08
2017-05-02T11:43:34.187Z,4.40
2017-05-02T11:46:00.835Z,4.95
2017-05-02T11:48:27.511Z,6.97
2017-05-02T11:50:55.126Z,8.47
2017-05-02T11:53:23.157Z,9.17
2017-05-02T11:55:50.110Z,6.80
2017-05-02T11:58:17.634Z,8.33
2017-05-02T12:00:44.859Z,8.50
2017-05-02T12:03:11.698Z,7.05
2017-05-02T12:05:38.381Z,9.18
2017-05-02T12:08:04.993Z,5.82
2017-05-02T12:10:31.686Z,6.33
2017-05-02T12:12:58.324Z,7.22
2017-05-02T12:15:24.947Z,6.35
2017-05-02T12:17:51.638Z,8.20
2017-05-02T12:20:18.272Z,7.77
2017-05-02T12:22:44.879Z,6.05
2017-05-02T12:25:11.487Z,5.77
2017-05-02T12:27:38.120Z,8.05
2017-05-02T12:30:04.727Z,5.67
2017-05-02T12:32:31.339Z,5.67
2017-05-02T12:34:58.525Z,5.33
2017-05-02T12:37:25.131Z,5.82
2017-05-02T12:39:51.767Z,5.62
2017-05-02T12:42:18.398Z,5.97
2017-05-02T12:44:44.999Z,6.60
2017-05-02T12:47:11.606Z,5.80
2017-05-02T12:49:38.235Z,5.78
2017-05-02T12:52:04.843Z,5.37
2017-05-02T12:56:58.126Z,5.68
2017-05-02T12:59:24.736Z,5.38
2017-05-02T13:01:51.360Z,9.22
2017-05-02T13:04:17.991Z,5.30
2017-05-02T13:06:44.598Z,5.55
2017-05-02T13:09:11.207Z,4.72
2017-05-02T13:11:37.838Z,5.42
2017-05-02T13:14:04.455Z,6.83
2017-05-02T13:16:31.068Z,5.33
2017-05-02T13:18:57.705Z,5.58
2017-05-02T13:21:24.311Z,5.32
2017-05-02T13:23:50.922Z,4.65
2017-05-02T13:26:17.555Z,5.42
2017-05-02T13:28:44.232Z,3.87
2017-05-02T13:31:10.834Z,4.62
2017-05-02T13:33:37.468Z,4.38
2017-05-02T13:36:04.083Z,4.70
2017-05-02T13:38:30.695Z,4.83
2017-05-02T13:40:57.330Z,3.60
2017-05-02T13:43:23.940Z,4.08
2017-05-02T13:45:52.914Z,3.25
2017-05-02T13:48:22.695Z,4.03
2017-05-02T13:50:49.331Z,3.38
2017-05-02T13:53:15.944Z,5.78
2017-05-02T13:55:42.579Z,3.65
2017-05-02T13:58:09.191Z,2.97
2017-05-02T14:00:35.863Z,4.12
2017-05-02T14:03:02.498Z,2.70
2017-05-02T14:05:29.173Z,2.88
2017-05-02T14:07:55.820Z,3.30
2017-05-02T14:10:22.555Z,3.05
2017-05-02T14:12:49.259Z,2.95
2017-05-02T14:15:15.869Z,2.75
2017-05-02T14:17:42.519Z,8.78
2017-05-02T14:20:09.127Z,2.93
2017-05-02T14:22:35.747Z,20.50
2017-05-02T14:25:02.378Z,2.80
2017-05-02T14:27:29.012Z,3.12
2017-05-02T14:29:55.620Z,3.28
2017-05-02T14:32:22.260Z,11.28
2017-05-02T14:34:48.868Z,5.67
2017-05-02T14:37:15.497Z,46.97
2017-05-02T14:39:42.115Z,5.38
2017-05-02T14:42:09.431Z,53.92
2017-05-02T14:44:36.054Z,9.50
2017-05-02T14:47:02.679Z,12.87
2017-05-02T14:49:29.396Z,11.08
2017-05-02T14:51:56.030Z,12.25
2017-05-02T14:54:22.682Z,16.28
2017-05-02T14:56:49.295Z,9.93
2017-05-02T14:59:15.930Z,7.63
2017-05-02T15:01:42.573Z,3.75
2017-05-02T15:04:09.205Z,7.60
2017-05-02T15:22:29.619Z,3.98
2017-05-02T15:24:56.511Z,3.07
2017-05-02T15:27:23.215Z,4.25
2017-05-02T15:29:49.831Z,3.60
2017-05-02T15:32:16.463Z,3.67
2017-05-02T15:34:43.071Z,3.27
2017-05-02T15:37:09.679Z,3.22
2017-05-02T15:39:36.311Z,3.50
2017-05-02T15:42:02.923Z,3.38
2017-05-02T15:44:29.543Z,3.65
2017-05-02T15:46:56.199Z,3.50
2017-05-02T15:49:22.803Z,3.60
2017-05-02T15:51:49.407Z,3.32
2017-05-02T15:54:16.038Z,3.50
2017-05-02T15:56:42.652Z,4.28
2017-05-02T15:59:09.263Z,3.12
2017-05-02T16:01:35.895Z,3.80
2017-05-02T16:04:02.510Z,3.92
2017-05-02T16:06:29.113Z,3.63
2017-05-02T16:08:55.750Z,3.77
2017-05-02T16:11:22.354Z,4.00
2017-05-02T16:13:48.962Z,3.72
2017-05-02T16:16:15.591Z,3.80
2017-05-02T16:18:42.208Z,3.78
2017-05-02T16:21:08.822Z,4.27
2017-05-02T16:23:35.455Z,4.15
2017-05-02T16:26:02.067Z,4.37
2017-05-02T16:28:28.674Z,4.75
2017-05-02T16:30:55.306Z,4.63
2017-05-02T16:35:55.227Z,4.72
2017-05-02T16:38:21.834Z,5.17
2017-05-02T16:40:48.442Z,4.15
2017-05-02T16:43:15.067Z,3.85
2017-05-02T16:45:41.687Z,4.22
2017-05-02T16:48:08.299Z,4.38
2017-05-02T16:50:34.939Z,3.87
2017-05-02T16:53:01.547Z,4.33
2017-05-02T16:55:28.158Z,3.95
2017-05-02T16:57:54.787Z,4.15
2017-05-02T17:00:21.443Z,4.63
2017-05-02T17:02:48.058Z,4.72
2017-05-02T17:05:14.694Z,5.45
2017-05-02T17:07:41.307Z,5.07
2017-05-02T17:10:07.994Z,4.77
2017-05-02T17:12:34.630Z,6.20
2017-05-02T17:15:01.243Z,5.52
2017-05-02T17:17:27.863Z,6.68
2017-05-02T17:19:54.495Z,5.12
2017-05-02T17:22:21.191Z,5.83
2017-05-02T17:24:47.799Z,4.90
2017-05-02T17:27:14.447Z,4.93
2017-05-02T17:29:41.066Z,5.50
2017-05-02T17:32:07.670Z,5.33
2017-05-02T17:34:34.302Z,5.72
2017-05-02T17:37:00.910Z,7.05
2017-05-02T17:39:27.522Z,6.40
2017-05-02T17:41:54.159Z,6.98
2017-05-02T17:44:20.762Z,6.87
2017-05-02T17:46:47.378Z,6.18
2017-05-02T17:49:14.119Z,6.47
2017-05-02T17:51:40.722Z,6.08
2017-05-02T17:54:07.331Z,6.08
2017-05-02T17:56:33.966Z,6.15
2017-05-02T17:59:00.574Z,6.97
2017-05-02T18:01:27.184Z,5.68
2017-05-02T18:03:53.821Z,8.58
2017-05-02T18:06:20.438Z,8.05
2017-05-02T18:08:47.122Z,6.50
2017-05-02T18:11:13.751Z,7.35
2017-05-02T18:13:40.364Z,6.90
2017-05-02T18:16:06.975Z,7.18
2017-05-02T18:18:33.628Z,6.88
2017-05-02T18:21:00.248Z,8.50
2017-05-02T18:23:26.856Z,7.38
2017-05-02T18:25:53.488Z,7.97
2017-05-02T18:28:20.097Z,8.28
2017-05-02T18:30:46.707Z,8.42
2017-05-02T18:33:13.351Z,7.28
2017-05-02T18:35:39.963Z,7.37
2017-05-02T18:38:06.572Z,8.23
2017-05-02T18:40:33.219Z,8.40
2017-05-02T18:42:59.828Z,8.90
2017-05-02T18:45:26.435Z,8.03
2017-05-02T18:47:53.096Z,8.70
2017-05-02T18:50:19.702Z,8.80
2017-05-02T18:52:46.313Z,8.38
2017-05-02T18:55:12.951Z,10.12
2017-05-02T18:57:39.563Z,10.13
2017-05-02T19:00:06.175Z,10.53
2017-05-02T19:02:32.812Z,10.15
2017-05-02T19:04:59.459Z,10.45
2017-05-02T19:07:26.156Z,11.52
2017-05-02T19:09:52.795Z,11.63
2017-05-02T19:12:19.417Z,12.65
2017-05-02T19:14:46.045Z,12.33
2017-05-02T19:17:12.814Z,13.83
2017-05-02T19:19:39.450Z,12.73
2017-05-02T19:22:06.072Z,13.58
2017-05-02T19:24:32.722Z,14.52
2017-05-02T19:26:59.343Z,16.38
2017-05-02T19:29:25.965Z,16.08
2017-05-02T19:31:52.608Z,15.83
2017-05-02T19:34:19.222Z,17.08
2017-05-02T19:36:45.837Z,19.72
2017-05-02T19:39:12.474Z,30.85
2017-05-02T19:41:39.088Z,18.92
2017-05-02T19:44:05.703Z,19.38
2017-05-02T19:46:32.342Z,18.75
2017-05-02T19:48:58.962Z,21.63
2017-05-02T19:51:25.663Z,18.58
2017-05-02T19:53:52.400Z,19.80
2017-05-02T19:56:19.018Z,21.92
2017-05-02T19:58:45.634Z,21.18
2017-05-02T20:01:12.275Z,22.67
2017-05-02T20:03:38.895Z,20.78
2017-05-02T20:06:05.517Z,24.28
2017-05-02T20:08:32.155Z,21.72
2017-05-02T20:10:58.771Z,25.32
2017-05-02T20:13:25.387Z,24.83
2017-05-02T20:15:52.031Z,24.60
2017-05-02T20:18:18.655Z,23.98
2017-05-02T20:20:45.274Z,24.27
2017-05-02T20:23:11.922Z,26.62
2017-05-02T20:25:38.550Z,27.83
2017-05-02T20:28:05.167Z,28.08
2017-05-02T20:30:31.807Z,29.63
2017-05-02T20:32:58.419Z,30.47
2017-05-02T20:35:25.047Z,29.22
2017-05-02T20:37:51.687Z,28.28
2017-05-02T20:40:18.302Z,25.67
2017-05-02T20:42:44.923Z,32.25
2017-05-02T20:45:11.570Z,34.08
2017-05-02T20:47:38.188Z,30.37
2017-05-02T20:50:04.807Z,29.45
2017-05-02T20:52:31.454Z,32.02
2017-05-02T20:54:58.687Z,35.30
2017-05-02T20:57:25.303Z,35.83
2017-05-02T20:59:51.951Z,35.97
2017-05-02T21:02:18.578Z,34.10
2017-05-02T21:04:45.190Z,33.25
2017-05-02T21:07:11.830Z,34.58
2017-05-02T21:09:38.447Z,34.52
2017-05-02T21:12:05.191Z,35.22
2017-05-02T21:14:31.839Z,34.12
2017-05-02T21:16:58.455Z,39.63
2017-05-02T21:19:25.077Z,37.60
2017-05-02T21:21:51.719Z,37.53
2017-05-02T21:24:18.332Z,37.42
2017-05-02T21:26:44.947Z,38.23
2017-05-02T21:29:11.586Z,38.85
2017-05-02T21:31:38.200Z,38.82
2017-05-02T21:34:04.823Z,34.77
2017-05-02T21:36:31.459Z,32.02
2017-05-02T21:38:58.071Z,33.52
2017-05-02T21:41:24.688Z,33.58
2017-05-02T21:43:51.326Z,38.67
2017-05-02T21:46:17.943Z,36.20
2017-05-02T21:48:44.557Z,36.97
2017-05-02T21:51:11.272Z,34.53
2017-05-02T21:53:37.887Z,34.13
2017-05-02T21:56:04.507Z,33.35
2017-05-02T21:58:31.148Z,30.03
2017-05-02T22:00:57.764Z,27.05
2017-05-02T22:03:24.475Z,24.72
2017-05-02T22:05:51.110Z,26.98
2017-05-02T22:08:17.726Z,24.50
2017-05-02T22:10:44.345Z,24.55
2017-05-02T22:13:11.034Z,24.28
2017-05-02T22:15:37.647Z,25.25
2017-05-02T22:18:04.304Z,25.37
2017-05-02T22:20:30.950Z,25.52
2017-05-02T22:22:57.563Z,24.40
2017-05-02T22:25:24.175Z,25.23
2017-05-02T22:27:50.833Z,22.60
2017-05-02T22:30:17.459Z,26.07
2017-05-02T22:32:44.075Z,24.08
2017-05-02T22:35:10.719Z,27.82
2017-05-02T22:37:37.339Z,26.72
2017-05-02T22:40:03.955Z,26.15
2017-05-02T22:42:30.595Z,25.73
2017-05-02T22:44:57.207Z,25.40
2017-05-02T22:47:23.854Z,25.67
2017-05-02T22:49:50.499Z,25.62
2017-05-02T22:52:17.111Z,26.45
2017-05-02T22:54:43.727Z,24.80
2017-05-02T22:57:10.374Z,26.40
2017-05-02T22:59:36.988Z,24.70
2017-05-02T23:02:03.603Z,24.37
2017-05-02T23:04:30.248Z,26.17
2017-05-02T23:06:56.863Z,26.28
2017-05-02T23:09:23.480Z,23.80
2017-05-02T23:11:50.116Z,23.92
2017-05-02T23:14:16.737Z,25.38
2017-05-02T23:16:43.347Z,23.60
2017-05-02T23:19:09.991Z,23.28
2017-05-02T23:21:36.603Z,25.23
2017-05-02T23:24:03.223Z,23.13
2017-05-02T23:26:29.862Z,25.63
2017-05-02T23:28:56.479Z,25.30
2017-05-02T23:31:23.099Z,23.95
2017-05-02T23:33:49.742Z,23.27
2017-05-02T23:36:16.355Z,22.77
2017-05-02T23:38:42.967Z,22.05
2017-05-02T23:41:09.606Z,23.40
2017-05-02T23:43:36.259Z,23.47
2017-05-02T23:46:02.879Z,23.25
2017-05-02T23:48:29.518Z,23.95
2017-05-02T23:50:56.142Z,23.63
2017-05-02T23:53:22.758Z,24.45
2017-05-02T23:55:49.411Z,25.87
2017-05-02T23:58:16.027Z,25.52
